sensor_id;sensor_type;location;lat;lon;timestamp;P1;durP1;ratioP1;P2;durP2;ratioP2
53309;SDS011;39197;53.200;5.792;2023-12-20T00:01:41;13.05;;;1.77;;
53309;SDS011;39197;53.200;5.792;2023-12-20T00:04:06;17.58;;;1.77;;
53309;SDS011;39197;53.200;5.792;2023-12-20T00:06:32;19.83;;;2.00;;
53309;SDS011;39197;53.200;5.792;2023-12-20T00:08:57;21.08;;;3.10;;
53309;SDS011;39197;53.200;5.792;2023-12-20T00:11:23;16.27;;;2.33;;
53309;SDS011;39197;53.200;5.792;2023-12-20T00:13:49;23.08;;;2.40;;
53309;SDS011;39197;53.200;5.792;2023-12-20T00:16:14;23.38;;;4.03;;
53309;SDS011;39197;53.200;5.792;2023-12-20T00:18:40;26.90;;;3.70;;
53309;SDS011;39197;53.200;5.792;2023-12-20T00:21:06;18.40;;;3.10;;
53309;SDS011;39197;53.200;5.792;2023-12-20T00:23:31;25.05;;;3.63;;
53309;SDS011;39197;53.200;5.792;2023-12-20T00:25:57;14.05;;;2.15;;
53309;SDS011;39197;53.200;5.792;2023-12-20T00:28:22;16.42;;;2.55;;
53309;SDS011;39197;53.200;5.792;2023-12-20T00:30:48;25.40;;;2.50;;
53309;SDS011;39197;53.200;5.792;2023-12-20T00:33:13;22.95;;;3.47;;
53309;SDS011;39197;53.200;5.792;2023-12-20T00:35:39;20.38;;;4.03;;
53309;SDS011;39197;53.200;5.792;2023-12-20T00:38:05;29.15;;;3.95;;
53309;SDS011;39197;53.200;5.792;2023-12-20T00:40:32;30.83;;;4.50;;
53309;SDS011;39197;53.200;5.792;2023-12-20T00:42:58;28.17;;;3.60;;
53309;SDS011;39197;53.200;5.792;2023-12-20T00:45:23;23.17;;;3.17;;
53309;SDS011;39197;53.200;5.792;2023-12-20T00:47:49;17.45;;;3.42;;
53309;SDS011;39197;53.200;5.792;2023-12-20T00:50:14;20.85;;;2.88;;
53309;SDS011;39197;53.200;5.792;2023-12-20T00:52:41;24.73;;;4.00;;
53309;SDS011;39197;53.200;5.792;2023-12-20T00:55:06;22.52;;;3.03;;
53309;SDS011;39197;53.200;5.792;2023-12-20T00:57:32;35.08;;;5.25;;
53309;SDS011;39197;53.200;5.792;2023-12-20T00:59:58;21.13;;;4.82;;
53309;SDS011;39197;53.200;5.792;2023-12-20T01:02:23;28.08;;;3.85;;
53309;SDS011;39197;53.200;5.792;2023-12-20T01:04:49;17.98;;;2.58;;
53309;SDS011;39197;53.200;5.792;2023-12-20T01:07:14;25.83;;;3.67;;
53309;SDS011;39197;53.200;5.792;2023-12-20T01:09:40;23.70;;;3.63;;
53309;SDS011;39197;53.200;5.792;2023-12-20T01:12:06;28.92;;;4.53;;
53309;SDS011;39197;53.200;5.792;2023-12-20T01:14:31;25.92;;;4.85;;
53309;SDS011;39197;53.200;5.792;2023-12-20T01:16:57;27.05;;;4.63;;
53309;SDS011;39197;53.200;5.792;2023-12-20T01:19:22;32.50;;;5.55;;
53309;SDS011;39197;53.200;5.792;2023-12-20T01:21:49;27.85;;;4.00;;
53309;SDS011;39197;53.200;5.792;2023-12-20T01:24:15;31.13;;;5.07;;
53309;SDS011;39197;53.200;5.792;2023-12-20T01:26:40;18.70;;;3.33;;
53309;SDS011;39197;53.200;5.792;2023-12-20T01:29:06;21.08;;;5.00;;
53309;SDS011;39197;53.200;5.792;2023-12-20T01:31:32;26.73;;;3.47;;
53309;SDS011;39197;53.200;5.792;2023-12-20T01:33:57;27.67;;;4.82;;
53309;SDS011;39197;53.200;5.792;2023-12-20T01:36:23;29.48;;;4.25;;
53309;SDS011;39197;53.200;5.792;2023-12-20T01:38:48;30.52;;;5.03;;
53309;SDS011;39197;53.200;5.792;2023-12-20T01:41:14;23.35;;;3.83;;
53309;SDS011;39197;53.200;5.792;2023-12-20T01:43:40;26.05;;;3.25;;
53309;SDS011;39197;53.200;5.792;2023-12-20T01:46:05;33.88;;;4.10;;
53309;SDS011;39197;53.200;5.792;2023-12-20T01:48:31;29.15;;;3.78;;
53309;SDS011;39197;53.200;5.792;2023-12-20T01:50:58;30.20;;;3.90;;
53309;SDS011;39197;53.200;5.792;2023-12-20T01:53:25;26.00;;;3.35;;
53309;SDS011;39197;53.200;5.792;2023-12-20T01:55:52;27.30;;;4.00;;
53309;SDS011;39197;53.200;5.792;2023-12-20T01:58:20;27.25;;;4.47;;
53309;SDS011;39197;53.200;5.792;2023-12-20T02:00:47;16.15;;;2.63;;
53309;SDS011;39197;53.200;5.792;2023-12-20T02:03:13;33.65;;;4.00;;
53309;SDS011;39197;53.200;5.792;2023-12-20T02:05:39;33.78;;;5.35;;
53309;SDS011;39197;53.200;5.792;2023-12-20T02:08:06;25.98;;;4.40;;
53309;SDS011;39197;53.200;5.792;2023-12-20T02:10:31;29.65;;;5.00;;
53309;SDS011;39197;53.200;5.792;2023-12-20T02:12:57;23.45;;;4.13;;
53309;SDS011;39197;53.200;5.792;2023-12-20T02:15:23;28.15;;;3.35;;
53309;SDS011;39197;53.200;5.792;2023-12-20T02:17:49;31.27;;;4.50;;
53309;SDS011;39197;53.200;5.792;2023-12-20T02:20:15;24.88;;;4.07;;
53309;SDS011;39197;53.200;5.792;2023-12-20T02:22:41;26.77;;;4.85;;
53309;SDS011;39197;53.200;5.792;2023-12-20T02:25:06;25.90;;;5.25;;
53309;SDS011;39197;53.200;5.792;2023-12-20T02:27:32;28.27;;;4.93;;
53309;SDS011;39197;53.200;5.792;2023-12-20T02:29:58;27.35;;;4.20;;
53309;SDS011;39197;53.200;5.792;2023-12-20T02:32:24;24.23;;;3.88;;
53309;SDS011;39197;53.200;5.792;2023-12-20T02:34:52;22.42;;;2.95;;
53309;SDS011;39197;53.200;5.792;2023-12-20T02:37:18;34.47;;;5.82;;
53309;SDS011;39197;53.200;5.792;2023-12-20T02:39:44;28.95;;;4.85;;
53309;SDS011;39197;53.200;5.792;2023-12-20T02:42:09;34.20;;;4.50;;
53309;SDS011;39197;53.200;5.792;2023-12-20T02:44:35;22.67;;;3.35;;
53309;SDS011;39197;53.200;5.792;2023-12-20T02:47:01;24.02;;;4.18;;
53309;SDS011;39197;53.200;5.792;2023-12-20T02:49:27;30.40;;;4.57;;
53309;SDS011;39197;53.200;5.792;2023-12-20T02:51:52;20.08;;;3.25;;
53309;SDS011;39197;53.200;5.792;2023-12-20T02:54:18;25.42;;;3.42;;
53309;SDS011;39197;53.200;5.792;2023-12-20T02:56:44;28.63;;;4.10;;
53309;SDS011;39197;53.200;5.792;2023-12-20T02:59:09;30.60;;;3.90;;
53309;SDS011;39197;53.200;5.792;2023-12-20T03:01:35;29.65;;;4.25;;
53309;SDS011;39197;53.200;5.792;2023-12-20T03:04:10;30.75;;;4.95;;
53309;SDS011;39197;53.200;5.792;2023-12-20T03:06:36;24.48;;;3.95;;
53309;SDS011;39197;53.200;5.792;2023-12-20T03:09:01;30.75;;;4.22;;
53309;SDS011;39197;53.200;5.792;2023-12-20T03:11:27;21.48;;;3.45;;
53309;SDS011;39197;53.200;5.792;2023-12-20T03:13:53;30.40;;;4.47;;
53309;SDS011;39197;53.200;5.792;2023-12-20T03:16:19;21.13;;;4.28;;
53309;SDS011;39197;53.200;5.792;2023-12-20T03:18:45;21.67;;;3.50;;
53309;SDS011;39197;53.200;5.792;2023-12-20T03:21:11;30.73;;;4.05;;
53309;SDS011;39197;53.200;5.792;2023-12-20T03:23:36;19.85;;;3.92;;
53309;SDS011;39197;53.200;5.792;2023-12-20T03:26:02;27.67;;;2.90;;
53309;SDS011;39197;53.200;5.792;2023-12-20T03:28:29;22.92;;;3.58;;
53309;SDS011;39197;53.200;5.792;2023-12-20T03:30:55;23.75;;;4.22;;
53309;SDS011;39197;53.200;5.792;2023-12-20T03:33:20;25.85;;;3.47;;
53309;SDS011;39197;53.200;5.792;2023-12-20T03:35:46;22.88;;;3.80;;
53309;SDS011;39197;53.200;5.792;2023-12-20T03:38:12;25.10;;;4.43;;
53309;SDS011;39197;53.200;5.792;2023-12-20T03:40:37;19.63;;;4.43;;
53309;SDS011;39197;53.200;5.792;2023-12-20T03:43:03;27.30;;;3.25;;
53309;SDS011;39197;53.200;5.792;2023-12-20T03:45:28;25.35;;;3.67;;
53309;SDS011;39197;53.200;5.792;2023-12-20T03:47:54;31.00;;;3.78;;
53309;SDS011;39197;53.200;5.792;2023-12-20T03:50:24;24.05;;;2.78;;
53309;SDS011;39197;53.200;5.792;2023-12-20T03:52:50;19.67;;;3.63;;
53309;SDS011;39197;53.200;5.792;2023-12-20T03:55:16;25.83;;;3.60;;
53309;SDS011;39197;53.200;5.792;2023-12-20T03:57:42;31.52;;;3.38;;
53309;SDS011;39197;53.200;5.792;2023-12-20T04:00:07;15.43;;;2.67;;
53309;SDS011;39197;53.200;5.792;2023-12-20T04:02:35;26.55;;;3.60;;
53309;SDS011;39197;53.200;5.792;2023-12-20T04:05:01;29.63;;;4.28;;
53309;SDS011;39197;53.200;5.792;2023-12-20T04:07:27;24.83;;;3.65;;
53309;SDS011;39197;53.200;5.792;2023-12-20T04:09:53;26.83;;;3.58;;
53309;SDS011;39197;53.200;5.792;2023-12-20T04:12:18;24.75;;;3.47;;
53309;SDS011;39197;53.200;5.792;2023-12-20T04:14:44;14.95;;;2.80;;
53309;SDS011;39197;53.200;5.792;2023-12-20T04:17:09;28.13;;;4.22;;
53309;SDS011;39197;53.200;5.792;2023-12-20T04:19:35;34.58;;;4.15;;
53309;SDS011;39197;53.200;5.792;2023-12-20T04:22:00;17.58;;;2.67;;
53309;SDS011;39197;53.200;5.792;2023-12-20T04:24:26;28.80;;;4.97;;
53309;SDS011;39197;53.200;5.792;2023-12-20T04:26:52;25.15;;;3.47;;
53309;SDS011;39197;53.200;5.792;2023-12-20T04:29:17;30.75;;;3.72;;
53309;SDS011;39197;53.200;5.792;2023-12-20T04:31:43;26.17;;;3.65;;
53309;SDS011;39197;53.200;5.792;2023-12-20T04:34:08;22.65;;;2.80;;
53309;SDS011;39197;53.200;5.792;2023-12-20T04:36:34;20.67;;;4.03;;
53309;SDS011;39197;53.200;5.792;2023-12-20T04:38:59;24.98;;;3.75;;
53309;SDS011;39197;53.200;5.792;2023-12-20T04:41:25;25.98;;;3.25;;
53309;SDS011;39197;53.200;5.792;2023-12-20T04:43:51;34.45;;;3.90;;
53309;SDS011;39197;53.200;5.792;2023-12-20T04:46:17;23.50;;;3.90;;
53309;SDS011;39197;53.200;5.792;2023-12-20T04:48:43;21.85;;;2.58;;
53309;SDS011;39197;53.200;5.792;2023-12-20T04:51:08;20.85;;;2.58;;
53309;SDS011;39197;53.200;5.792;2023-12-20T04:53:34;21.55;;;3.03;;
53309;SDS011;39197;53.200;5.792;2023-12-20T04:55:59;22.40;;;2.83;;
53309;SDS011;39197;53.200;5.792;2023-12-20T04:58:25;27.63;;;3.88;;
53309;SDS011;39197;53.200;5.792;2023-12-20T05:00:50;28.13;;;4.35;;
53309;SDS011;39197;53.200;5.792;2023-12-20T05:03:16;31.20;;;4.00;;
53309;SDS011;39197;53.200;5.792;2023-12-20T05:05:42;30.00;;;4.65;;
53309;SDS011;39197;53.200;5.792;2023-12-20T05:08:07;27.77;;;4.55;;
53309;SDS011;39197;53.200;5.792;2023-12-20T05:10:33;30.35;;;3.72;;
53309;SDS011;39197;53.200;5.792;2023-12-20T05:12:59;35.10;;;5.72;;
53309;SDS011;39197;53.200;5.792;2023-12-20T05:15:24;31.35;;;3.30;;
53309;SDS011;39197;53.200;5.792;2023-12-20T05:17:50;30.25;;;3.50;;
53309;SDS011;39197;53.200;5.792;2023-12-20T05:20:15;28.60;;;3.97;;
53309;SDS011;39197;53.200;5.792;2023-12-20T05:22:41;40.38;;;6.53;;
53309;SDS011;39197;53.200;5.792;2023-12-20T05:25:07;22.77;;;3.30;;
53309;SDS011;39197;53.200;5.792;2023-12-20T05:27:32;35.92;;;4.75;;
53309;SDS011;39197;53.200;5.792;2023-12-20T05:29:58;20.40;;;2.85;;
53309;SDS011;39197;53.200;5.792;2023-12-20T05:32:24;23.42;;;3.40;;
53309;SDS011;39197;53.200;5.792;2023-12-20T05:34:50;20.63;;;3.13;;
53309;SDS011;39197;53.200;5.792;2023-12-20T05:37:15;36.88;;;5.57;;
53309;SDS011;39197;53.200;5.792;2023-12-20T05:39:41;36.10;;;3.75;;
53309;SDS011;39197;53.200;5.792;2023-12-20T05:42:06;24.50;;;3.55;;
53309;SDS011;39197;53.200;5.792;2023-12-20T05:44:32;29.67;;;3.42;;
53309;SDS011;39197;53.200;5.792;2023-12-20T05:46:57;27.65;;;5.80;;
53309;SDS011;39197;53.200;5.792;2023-12-20T05:49:23;20.77;;;3.72;;
53309;SDS011;39197;53.200;5.792;2023-12-20T05:51:49;27.63;;;3.63;;
53309;SDS011;39197;53.200;5.792;2023-12-20T05:54:16;23.23;;;3.20;;
53309;SDS011;39197;53.200;5.792;2023-12-20T05:56:41;24.10;;;3.97;;
53309;SDS011;39197;53.200;5.792;2023-12-20T05:59:07;21.13;;;2.90;;
53309;SDS011;39197;53.200;5.792;2023-12-20T06:01:33;19.55;;;2.50;;
53309;SDS011;39197;53.200;5.792;2023-12-20T06:03:58;29.27;;;3.80;;
53309;SDS011;39197;53.200;5.792;2023-12-20T06:06:24;25.63;;;4.03;;
53309;SDS011;39197;53.200;5.792;2023-12-20T06:08:49;24.52;;;3.25;;
53309;SDS011;39197;53.200;5.792;2023-12-20T06:11:15;29.33;;;4.47;;
53309;SDS011;39197;53.200;5.792;2023-12-20T06:13:40;20.75;;;2.80;;
53309;SDS011;39197;53.200;5.792;2023-12-20T06:16:06;27.13;;;4.28;;
53309;SDS011;39197;53.200;5.792;2023-12-20T06:18:34;27.65;;;4.00;;
53309;SDS011;39197;53.200;5.792;2023-12-20T06:21:01;24.60;;;4.03;;
53309;SDS011;39197;53.200;5.792;2023-12-20T06:23:27;25.00;;;3.97;;
53309;SDS011;39197;53.200;5.792;2023-12-20T06:25:53;20.73;;;3.00;;
53309;SDS011;39197;53.200;5.792;2023-12-20T06:28:19;22.67;;;3.63;;
53309;SDS011;39197;53.200;5.792;2023-12-20T06:30:44;22.35;;;3.47;;
53309;SDS011;39197;53.200;5.792;2023-12-20T06:33:12;29.52;;;3.53;;
53309;SDS011;39197;53.200;5.792;2023-12-20T06:35:38;28.45;;;5.00;;
53309;SDS011;39197;53.200;5.792;2023-12-20T06:38:04;24.77;;;3.92;;
53309;SDS011;39197;53.200;5.792;2023-12-20T06:40:29;21.00;;;3.13;;
53309;SDS011;39197;53.200;5.792;2023-12-20T06:42:55;20.17;;;3.00;;
53309;SDS011;39197;53.200;5.792;2023-12-20T06:45:21;20.60;;;3.15;;
53309;SDS011;39197;53.200;5.792;2023-12-20T06:47:46;24.45;;;4.32;;
53309;SDS011;39197;53.200;5.792;2023-12-20T06:50:12;25.35;;;3.03;;
53309;SDS011;39197;53.200;5.792;2023-12-20T06:52:37;25.73;;;3.85;;
53309;SDS011;39197;53.200;5.792;2023-12-20T06:55:03;26.92;;;2.97;;
53309;SDS011;39197;53.200;5.792;2023-12-20T06:57:29;32.55;;;4.68;;
53309;SDS011;39197;53.200;5.792;2023-12-20T06:59:55;25.00;;;3.97;;
53309;SDS011;39197;53.200;5.792;2023-12-20T07:02:21;20.40;;;2.83;;
53309;SDS011;39197;53.200;5.792;2023-12-20T07:04:47;24.85;;;3.58;;
53309;SDS011;39197;53.200;5.792;2023-12-20T07:07:13;30.88;;;4.88;;
53309;SDS011;39197;53.200;5.792;2023-12-20T07:09:38;33.80;;;4.53;;
53309;SDS011;39197;53.200;5.792;2023-12-20T07:12:06;24.38;;;3.50;;
53309;SDS011;39197;53.200;5.792;2023-12-20T07:14:31;27.38;;;4.28;;
53309;SDS011;39197;53.200;5.792;2023-12-20T07:16:57;29.20;;;4.03;;
53309;SDS011;39197;53.200;5.792;2023-12-20T07:19:22;32.80;;;5.40;;
53309;SDS011;39197;53.200;5.792;2023-12-20T07:21:48;35.67;;;5.10;;
53309;SDS011;39197;53.200;5.792;2023-12-20T07:24:14;30.13;;;4.00;;
53309;SDS011;39197;53.200;5.792;2023-12-20T07:26:39;21.98;;;3.45;;
53309;SDS011;39197;53.200;5.792;2023-12-20T07:29:05;24.80;;;3.30;;
53309;SDS011;39197;53.200;5.792;2023-12-20T07:31:31;26.33;;;3.90;;
53309;SDS011;39197;53.200;5.792;2023-12-20T07:33:57;23.73;;;3.85;;
53309;SDS011;39197;53.200;5.792;2023-12-20T07:36:23;25.42;;;3.50;;
53309;SDS011;39197;53.200;5.792;2023-12-20T07:38:48;31.58;;;4.43;;
53309;SDS011;39197;53.200;5.792;2023-12-20T07:41:14;32.40;;;3.83;;
53309;SDS011;39197;53.200;5.792;2023-12-20T07:43:41;25.23;;;3.72;;
53309;SDS011;39197;53.200;5.792;2023-12-20T07:46:09;24.23;;;3.70;;
53309;SDS011;39197;53.200;5.792;2023-12-20T07:48:35;23.23;;;3.60;;
53309;SDS011;39197;53.200;5.792;2023-12-20T07:51:01;23.40;;;3.40;;
53309;SDS011;39197;53.200;5.792;2023-12-20T07:53:27;20.70;;;2.67;;
53309;SDS011;39197;53.200;5.792;2023-12-20T07:55:53;16.80;;;2.00;;
53309;SDS011;39197;53.200;5.792;2023-12-20T07:58:19;9.27;;;1.20;;
53309;SDS011;39197;53.200;5.792;2023-12-20T08:00:45;7.20;;;0.90;;
53309;SDS011;39197;53.200;5.792;2023-12-20T08:03:11;12.80;;;1.55;;
53309;SDS011;39197;53.200;5.792;2023-12-20T08:05:37;14.38;;;1.40;;
53309;SDS011;39197;53.200;5.792;2023-12-20T08:08:05;11.07;;;2.03;;
53309;SDS011;39197;53.200;5.792;2023-12-20T08:10:31;23.90;;;2.78;;
53309;SDS011;39197;53.200;5.792;2023-12-20T08:12:57;22.95;;;2.38;;
53309;SDS011;39197;53.200;5.792;2023-12-20T08:15:22;20.75;;;3.55;;
53309;SDS011;39197;53.200;5.792;2023-12-20T08:17:48;29.88;;;4.75;;
53309;SDS011;39197;53.200;5.792;2023-12-20T08:20:16;23.70;;;3.25;;
53309;SDS011;39197;53.200;5.792;2023-12-20T08:22:41;32.60;;;4.85;;
53309;SDS011;39197;53.200;5.792;2023-12-20T08:25:07;25.13;;;3.65;;
53309;SDS011;39197;53.200;5.792;2023-12-20T08:27:33;27.33;;;3.70;;
53309;SDS011;39197;53.200;5.792;2023-12-20T08:30:03;27.75;;;3.58;;
53309;SDS011;39197;53.200;5.792;2023-12-20T08:32:29;26.95;;;3.88;;
53309;SDS011;39197;53.200;5.792;2023-12-20T08:34:55;26.55;;;3.67;;
53309;SDS011;39197;53.200;5.792;2023-12-20T08:37:20;22.20;;;4.28;;
53309;SDS011;39197;53.200;5.792;2023-12-20T08:39:46;32.47;;;4.25;;
53309;SDS011;39197;53.200;5.792;2023-12-20T08:42:11;30.42;;;4.20;;
53309;SDS011;39197;53.200;5.792;2023-12-20T08:44:37;27.88;;;4.05;;
53309;SDS011;39197;53.200;5.792;2023-12-20T08:47:03;23.63;;;3.97;;
53309;SDS011;39197;53.200;5.792;2023-12-20T08:49:28;27.92;;;4.22;;
53309;SDS011;39197;53.200;5.792;2023-12-20T08:51:54;21.13;;;3.05;;
53309;SDS011;39197;53.200;5.792;2023-12-20T08:54:20;16.75;;;2.00;;
53309;SDS011;39197;53.200;5.792;2023-12-20T08:56:45;13.65;;;1.50;;
53309;SDS011;39197;53.200;5.792;2023-12-20T08:59:11;9.93;;;1.30;;
53309;SDS011;39197;53.200;5.792;2023-12-20T09:01:37;13.30;;;1.70;;
53309;SDS011;39197;53.200;5.792;2023-12-20T09:04:03;16.42;;;2.47;;
53309;SDS011;39197;53.200;5.792;2023-12-20T09:06:28;14.32;;;1.38;;
53309;SDS011;39197;53.200;5.792;2023-12-20T09:08:54;16.90;;;1.58;;
53309;SDS011;39197;53.200;5.792;2023-12-20T09:11:19;14.45;;;1.40;;
53309;SDS011;39197;53.200;5.792;2023-12-20T09:13:45;12.75;;;1.90;;
53309;SDS011;39197;53.200;5.792;2023-12-20T09:16:11;15.05;;;2.40;;
53309;SDS011;39197;53.200;5.792;2023-12-20T09:18:38;17.45;;;1.95;;
53309;SDS011;39197;53.200;5.792;2023-12-20T09:21:03;19.40;;;1.90;;
53309;SDS011;39197;53.200;5.792;2023-12-20T09:23:29;11.90;;;0.77;;
53309;SDS011;39197;53.200;5.792;2023-12-20T09:25:54;12.32;;;1.60;;
53309;SDS011;39197;53.200;5.792;2023-12-20T09:28:20;15.50;;;2.15;;
53309;SDS011;39197;53.200;5.792;2023-12-20T09:30:46;16.45;;;2.08;;
53309;SDS011;39197;53.200;5.792;2023-12-20T09:33:12;24.33;;;3.75;;
53309;SDS011;39197;53.200;5.792;2023-12-20T09:35:39;19.02;;;2.28;;
53309;SDS011;39197;53.200;5.792;2023-12-20T09:38:04;16.10;;;1.77;;
53309;SDS011;39197;53.200;5.792;2023-12-20T09:40:30;15.38;;;2.03;;
53309;SDS011;39197;53.200;5.792;2023-12-20T09:43:03;17.65;;;1.95;;
53309;SDS011;39197;53.200;5.792;2023-12-20T09:45:30;16.73;;;1.65;;
53309;SDS011;39197;53.200;5.792;2023-12-20T09:47:57;11.50;;;1.58;;
53309;SDS011;39197;53.200;5.792;2023-12-20T09:50:23;13.13;;;1.70;;
53309;SDS011;39197;53.200;5.792;2023-12-20T09:52:49;13.52;;;1.42;;
53309;SDS011;39197;53.200;5.792;2023-12-20T09:55:17;12.43;;;1.50;;
53309;SDS011;39197;53.200;5.792;2023-12-20T09:57:44;12.07;;;1.58;;
53309;SDS011;39197;53.200;5.792;2023-12-20T10:00:10;15.60;;;1.52;;
53309;SDS011;39197;53.200;5.792;2023-12-20T10:02:38;14.35;;;1.58;;
53309;SDS011;39197;53.200;5.792;2023-12-20T10:05:07;14.02;;;1.30;;
53309;SDS011;39197;53.200;5.792;2023-12-20T10:07:35;15.38;;;1.85;;
53309;SDS011;39197;53.200;5.792;2023-12-20T10:10:01;8.88;;;1.38;;
53309;SDS011;39197;53.200;5.792;2023-12-20T10:12:27;12.57;;;1.00;;
53309;SDS011;39197;53.200;5.792;2023-12-20T10:14:53;15.57;;;2.42;;
53309;SDS011;39197;53.200;5.792;2023-12-20T10:17:18;12.20;;;1.70;;
53309;SDS011;39197;53.200;5.792;2023-12-20T10:19:44;14.35;;;2.05;;
53309;SDS011;39197;53.200;5.792;2023-12-20T10:22:09;18.95;;;2.00;;
53309;SDS011;39197;53.200;5.792;2023-12-20T10:24:35;26.83;;;2.95;;
53309;SDS011;39197;53.200;5.792;2023-12-20T10:27:04;17.40;;;2.30;;
53309;SDS011;39197;53.200;5.792;2023-12-20T10:29:31;20.63;;;2.67;;
53309;SDS011;39197;53.200;5.792;2023-12-20T10:31:58;15.52;;;2.28;;
53309;SDS011;39197;53.200;5.792;2023-12-20T10:34:24;14.70;;;1.95;;
53309;SDS011;39197;53.200;5.792;2023-12-20T10:36:49;12.93;;;1.70;;
53309;SDS011;39197;53.200;5.792;2023-12-20T10:39:15;10.90;;;1.15;;
53309;SDS011;39197;53.200;5.792;2023-12-20T10:41:41;13.38;;;1.63;;
53309;SDS011;39197;53.200;5.792;2023-12-20T10:44:08;12.88;;;2.08;;
53309;SDS011;39197;53.200;5.792;2023-12-20T10:46:35;15.35;;;2.00;;
53309;SDS011;39197;53.200;5.792;2023-12-20T10:49:03;17.75;;;1.85;;
53309;SDS011;39197;53.200;5.792;2023-12-20T10:51:30;16.20;;;1.80;;
53309;SDS011;39197;53.200;5.792;2023-12-20T10:53:56;14.68;;;1.70;;
53309;SDS011;39197;53.200;5.792;2023-12-20T10:56:22;14.20;;;1.73;;
53309;SDS011;39197;53.200;5.792;2023-12-20T10:58:51;26.00;;;1.85;;
53309;SDS011;39197;53.200;5.792;2023-12-20T11:01:17;23.88;;;2.20;;
53309;SDS011;39197;53.200;5.792;2023-12-20T11:03:51;13.18;;;1.70;;
53309;SDS011;39197;53.200;5.792;2023-12-20T11:09:13;14.82;;;2.47;;
53309;SDS011;39197;53.200;5.792;2023-12-20T11:11:52;17.15;;;2.63;;
53309;SDS011;39197;53.200;5.792;2023-12-20T11:14:31;13.80;;;2.00;;
53309;SDS011;39197;53.200;5.792;2023-12-20T11:22:25;18.88;;;3.33;;
53309;SDS011;39197;53.200;5.792;2023-12-20T11:24:53;15.00;;;2.00;;
53309;SDS011;39197;53.200;5.792;2023-12-20T11:27:20;19.90;;;1.88;;
53309;SDS011;39197;53.200;5.792;2023-12-20T11:29:57;14.30;;;2.42;;
53309;SDS011;39197;53.200;5.792;2023-12-20T11:34:58;17.13;;;2.87;;
53309;SDS011;39197;53.200;5.792;2023-12-20T11:37:30;15.32;;;2.47;;
53309;SDS011;39197;53.200;5.792;2023-12-20T11:40:00;19.50;;;5.20;;
53309;SDS011;39197;53.200;5.792;2023-12-20T11:42:32;15.48;;;2.40;;
53309;SDS011;39197;53.200;5.792;2023-12-20T11:45:03;13.63;;;1.52;;
53309;SDS011;39197;53.200;5.792;2023-12-20T11:47:29;15.55;;;2.95;;
53309;SDS011;39197;53.200;5.792;2023-12-20T11:49:56;18.08;;;3.03;;
53309;SDS011;39197;53.200;5.792;2023-12-20T11:52:22;14.38;;;1.77;;
53309;SDS011;39197;53.200;5.792;2023-12-20T11:54:47;20.77;;;2.97;;
53309;SDS011;39197;53.200;5.792;2023-12-20T11:57:13;17.50;;;2.70;;
53309;SDS011;39197;53.200;5.792;2023-12-20T11:59:39;18.75;;;2.63;;
53309;SDS011;39197;53.200;5.792;2023-12-20T12:02:05;21.38;;;2.60;;
53309;SDS011;39197;53.200;5.792;2023-12-20T12:04:30;14.70;;;1.83;;
53309;SDS011;39197;53.200;5.792;2023-12-20T12:06:56;16.98;;;1.98;;
53309;SDS011;39197;53.200;5.792;2023-12-20T12:09:22;13.25;;;1.60;;
53309;SDS011;39197;53.200;5.792;2023-12-20T12:11:47;15.85;;;2.17;;
53309;SDS011;39197;53.200;5.792;2023-12-20T12:14:13;17.75;;;1.80;;
53309;SDS011;39197;53.200;5.792;2023-12-20T12:16:41;14.85;;;1.27;;
53309;SDS011;39197;53.200;5.792;2023-12-20T12:19:07;15.80;;;3.08;;
53309;SDS011;39197;53.200;5.792;2023-12-20T12:21:32;12.80;;;1.63;;
53309;SDS011;39197;53.200;5.792;2023-12-20T12:24:07;12.77;;;1.25;;
53309;SDS011;39197;53.200;5.792;2023-12-20T12:26:34;10.90;;;1.83;;
53309;SDS011;39197;53.200;5.792;2023-12-20T12:28:59;11.43;;;1.42;;
53309;SDS011;39197;53.200;5.792;2023-12-20T12:31:25;9.13;;;1.33;;
53309;SDS011;39197;53.200;5.792;2023-12-20T12:33:51;11.48;;;1.30;;
53309;SDS011;39197;53.200;5.792;2023-12-20T12:36:17;14.60;;;2.67;;
53309;SDS011;39197;53.200;5.792;2023-12-20T12:38:43;9.20;;;0.95;;
53309;SDS011;39197;53.200;5.792;2023-12-20T12:41:09;10.52;;;0.80;;
53309;SDS011;39197;53.200;5.792;2023-12-20T12:43:37;10.63;;;2.05;;
53309;SDS011;39197;53.200;5.792;2023-12-20T12:46:03;10.88;;;1.50;;
53309;SDS011;39197;53.200;5.792;2023-12-20T12:48:28;8.88;;;1.40;;
53309;SDS011;39197;53.200;5.792;2023-12-20T12:50:54;14.43;;;1.33;;
53309;SDS011;39197;53.200;5.792;2023-12-20T12:53:23;9.80;;;1.35;;
53309;SDS011;39197;53.200;5.792;2023-12-20T12:55:50;10.20;;;1.40;;
53309;SDS011;39197;53.200;5.792;2023-12-20T12:58:15;13.55;;;2.20;;
53309;SDS011;39197;53.200;5.792;2023-12-20T13:00:41;9.65;;;1.25;;
53309;SDS011;39197;53.200;5.792;2023-12-20T13:03:07;11.15;;;1.40;;
53309;SDS011;39197;53.200;5.792;2023-12-20T13:05:33;13.07;;;1.23;;
53309;SDS011;39197;53.200;5.792;2023-12-20T13:07:59;14.88;;;3.55;;
53309;SDS011;39197;53.200;5.792;2023-12-20T13:10:24;14.93;;;1.50;;
53309;SDS011;39197;53.200;5.792;2023-12-20T13:12:50;6.05;;;0.90;;
53309;SDS011;39197;53.200;5.792;2023-12-20T13:15:15;7.07;;;1.02;;
53309;SDS011;39197;53.200;5.792;2023-12-20T13:17:41;12.40;;;2.28;;
53309;SDS011;39197;53.200;5.792;2023-12-20T13:20:07;9.45;;;0.93;;
53309;SDS011;39197;53.200;5.792;2023-12-20T13:22:33;9.15;;;1.00;;
53309;SDS011;39197;53.200;5.792;2023-12-20T13:24:58;8.35;;;0.73;;
53309;SDS011;39197;53.200;5.792;2023-12-20T13:27:24;11.00;;;1.00;;
53309;SDS011;39197;53.200;5.792;2023-12-20T13:29:49;7.38;;;0.88;;
53309;SDS011;39197;53.200;5.792;2023-12-20T13:32:15;7.38;;;0.52;;
53309;SDS011;39197;53.200;5.792;2023-12-20T13:34:40;10.43;;;0.95;;
53309;SDS011;39197;53.200;5.792;2023-12-20T13:37:06;10.60;;;0.88;;
53309;SDS011;39197;53.200;5.792;2023-12-20T13:39:32;9.63;;;1.00;;
53309;SDS011;39197;53.200;5.792;2023-12-20T13:41:58;10.20;;;1.27;;
53309;SDS011;39197;53.200;5.792;2023-12-20T13:44:23;7.47;;;0.90;;
53309;SDS011;39197;53.200;5.792;2023-12-20T13:46:49;8.90;;;0.52;;
53309;SDS011;39197;53.200;5.792;2023-12-20T13:49:15;10.05;;;1.35;;
53309;SDS011;39197;53.200;5.792;2023-12-20T13:51:41;6.68;;;0.80;;
53309;SDS011;39197;53.200;5.792;2023-12-20T13:54:06;6.75;;;0.90;;
53309;SDS011;39197;53.200;5.792;2023-12-20T13:56:32;9.07;;;0.75;;
53309;SDS011;39197;53.200;5.792;2023-12-20T13:58:58;38.78;;;19.80;;
53309;SDS011;39197;53.200;5.792;2023-12-20T14:01:24;11.35;;;2.10;;
53309;SDS011;39197;53.200;5.792;2023-12-20T14:03:51;8.88;;;1.38;;
53309;SDS011;39197;53.200;5.792;2023-12-20T14:06:17;14.57;;;2.83;;
53309;SDS011;39197;53.200;5.792;2023-12-20T14:08:43;7.28;;;0.90;;
53309;SDS011;39197;53.200;5.792;2023-12-20T14:11:08;16.27;;;1.67;;
53309;SDS011;39197;53.200;5.792;2023-12-20T14:13:34;11.82;;;2.10;;
53309;SDS011;39197;53.200;5.792;2023-12-20T14:16:00;15.40;;;1.52;;
53309;SDS011;39197;53.200;5.792;2023-12-20T14:18:26;12.40;;;1.38;;
53309;SDS011;39197;53.200;5.792;2023-12-20T14:20:52;14.10;;;2.67;;
53309;SDS011;39197;53.200;5.792;2023-12-20T14:23:19;19.20;;;1.65;;
53309;SDS011;39197;53.200;5.792;2023-12-20T14:25:44;12.00;;;1.42;;
53309;SDS011;39197;53.200;5.792;2023-12-20T14:28:10;21.88;;;2.95;;
53309;SDS011;39197;53.200;5.792;2023-12-20T14:30:39;23.23;;;3.03;;
53309;SDS011;39197;53.200;5.792;2023-12-20T14:33:05;16.83;;;2.50;;
53309;SDS011;39197;53.200;5.792;2023-12-20T14:35:30;26.00;;;3.53;;
53309;SDS011;39197;53.200;5.792;2023-12-20T14:37:56;24.17;;;3.78;;
53309;SDS011;39197;53.200;5.792;2023-12-20T14:40:22;20.30;;;3.30;;